Time;durP1;ratioP1;P1;durP2;ratioP2;P2;SDS_P1;SDS_P2;PMS_P1;PMS_P2;Temp;Humidity;BMP_temperature;BMP_pressure;BME280_temperature;BME280_humidity;BME280_pressure;Samples;Min_cycle;Max_cycle;Signal;HPM_P1;HPM_P2
2023/03/31 00:02:06;;;;;;;7.32;1.80;;;;;;;9.45;100.00;100291.28;4883170;29;20025;-89
2023/03/31 00:04:31;;;;;;;10.38;2.03;;;;;;;9.39;100.00;100281.63;4900091;29;20024;-89
2023/03/31 00:06:57;;;;;;;5.40;1.48;;;;;;;9.39;100.00;100281.63;4899614;29;20043;-88
2023/03/31 00:09:22;;;;;;;8.17;1.70;;;;;;;9.38;100.00;100274.66;4899835;29;20115;-88
2023/03/31 00:11:49;;;;;;;5.37;1.37;;;;;;;9.36;100.00;100252.75;4908511;29;20456;-89
2023/03/31 00:14:16;;;;;;;7.93;1.75;;;;;;;9.31;100.00;100248.19;4918527;29;20514;-90
2023/03/31 00:16:43;;;;;;;7.80;1.77;;;;;;;9.28;100.00;100238.00;4905406;29;20056;-91
2023/03/31 00:19:16;;;;;;;8.80;1.92;;;;;;;9.23;100.00;100228.13;4900824;29;20098;-90
2023/03/31 00:21:46;;;;;;;6.40;1.47;;;;;;;9.13;100.00;100219.25;4899890;29;20029;-90
2023/03/31 00:24:13;;;;;;;11.30;1.63;;;;;;;9.16;100.00;100224.88;4900732;29;20288;-90
2023/03/31 00:26:39;;;;;;;6.47;1.80;;;;;;;9.14;100.00;100216.31;4900001;29;20052;-90
2023/03/31 00:29:06;;;;;;;8.30;1.67;;;;;;;9.11;100.00;100211.53;4933151;28;20050;-89
2023/03/31 00:31:32;;;;;;;10.60;1.90;;;;;;;9.06;100.00;100206.16;4922162;29;20028;-90
2023/03/31 00:33:57;;;;;;;11.53;1.90;;;;;;;9.03;100.00;100199.47;4923252;29;20027;-90
2023/03/31 00:36:27;;;;;;;9.68;1.80;;;;;;;8.97;100.00;100194.34;4939061;29;20164;-90
2023/03/31 00:38:55;;;;;;;11.85;1.42;;;;;;;8.96;100.00;100190.06;4884817;29;20037;-91
2023/03/31 00:41:21;;;;;;;10.53;1.40;;;;;;;8.96;100.00;100192.72;4900865;29;20388;-89
2023/03/31 00:44:00;;;;;;;7.77;1.47;;;;;;;8.90;100.00;100187.41;4907204;29;20959;-90
2023/03/31 00:46:37;;;;;;;7.32;1.30;;;;;;;8.89;100.00;100169.75;4917827;29;20103;-90
2023/03/31 00:49:03;;;;;;;12.18;1.90;;;;;;;8.91;100.00;100164.13;4922014;29;20048;-89
2023/03/31 00:51:32;;;;;;;14.07;1.55;;;;;;;8.89;100.00;100163.59;4919236;29;20495;-90
2023/03/31 00:54:07;;;;;;;9.30;1.67;;;;;;;8.85;100.00;100157.97;4919524;29;20480;-90
2023/03/31 00:56:38;;;;;;;12.17;2.00;;;;;;;8.93;100.00;100162.00;4918947;29;20028;-91
2023/03/31 00:59:07;;;;;;;8.00;1.43;;;;;;;8.91;100.00;100159.63;4917833;29;20827;-90
2023/03/31 01:01:38;;;;;;;10.25;1.48;;;;;;;8.87;100.00;100147.84;4916582;29;20551;-90
2023/03/31 01:04:06;;;;;;;8.95;1.40;;;;;;;8.92;100.00;100161.22;4901473;29;20028;-90
2023/03/31 01:06:32;;;;;;;6.45;1.63;;;;;;;8.89;100.00;100145.72;4917878;29;20059;-90
2023/03/31 01:08:58;;;;;;;10.63;1.75;;;;;;;8.97;100.00;100141.72;4918284;29;20071;-90
2023/03/31 01:11:27;;;;;;;12.88;1.73;;;;;;;9.00;100.00;100145.72;4915846;29;20127;-90
2023/03/31 01:13:55;;;;;;;8.00;1.30;;;;;;;8.98;100.00;100132.63;4899529;29;20029;-90
2023/03/31 01:16:20;;;;;;;8.43;1.45;;;;;;;9.06;100.00;100134.78;4899719;29;20023;-90
2023/03/31 01:18:48;;;;;;;9.80;1.20;;;;;;;9.08;100.00;100138.00;4906696;29;20514;-90
2023/03/31 01:21:36;;;;;;;12.13;1.60;;;;;;;9.15;100.00;100124.38;4900688;29;20036;-90
2023/03/31 01:24:10;;;;;;;11.65;1.30;;;;;;;9.20;100.00;100118.25;4901681;29;20071;-90
2023/03/31 01:27:03;;;;;;;9.98;1.80;;;;;;;9.24;100.00;100114.78;4918117;29;20028;-90
2023/03/31 01:29:43;;;;;;;6.50;1.48;;;;;;;9.21;100.00;100111.84;4917452;29;20555;-89
2023/03/31 01:32:45;;;;;;;8.25;1.77;;;;;;;9.21;100.00;100106.50;4917025;29;20064;-88
2023/03/31 01:35:50;;;;;;;13.20;1.93;;;;;;;9.18;100.00;100099.78;4916730;29;20501;-91
2023/03/31 01:38:28;;;;;;;16.80;2.00;;;;;;;9.21;100.00;100104.59;4917429;29;20977;-91
2023/03/31 01:40:54;;;;;;;12.35;2.05;;;;;;;9.22;100.00;100092.84;4890006;29;20495;-90
2023/03/31 01:43:31;;;;;;;9.82;1.45;;;;;;;9.21;100.00;100088.56;4902973;29;20029;-90
2023/03/31 01:46:50;;;;;;;11.23;1.83;;;;;;;9.20;100.00;100081.63;4914251;29;20041;-90
2023/03/31 01:49:26;;;;;;;10.32;1.63;;;;;;;9.10;100.00;100070.94;4878440;29;20056;-91
2023/03/31 01:52:19;;;;;;;17.33;1.77;;;;;;;9.17;100.00;100071.44;4913549;29;20060;-91
2023/03/31 01:54:57;;;;;;;10.82;2.03;;;;;;;9.15;100.00;100068.25;4916130;29;20404;-91
2023/03/31 01:57:34;;;;;;;14.38;1.92;;;;;;;9.14;100.00;100055.94;4903186;29;20063;-91
2023/03/31 02:00:13;;;;;;;13.10;1.87;;;;;;;9.14;100.00;100047.13;4903478;29;20037;-91
2023/03/31 02:02:48;;;;;;;13.23;1.87;;;;;;;9.13;100.00;100043.63;4900445;29;20284;-90
2023/03/31 02:05:24;;;;;;;9.45;1.80;;;;;;;9.10;100.00;100038.84;4903144;29;20103;-91
2023/03/31 02:07:55;;;;;;;6.90;1.85;;;;;;;9.08;100.00;100025.75;4883972;29;20059;-91
2023/03/31 02:10:23;;;;;;;14.13;1.90;;;;;;;9.07;100.00;100010.78;4898921;29;20033;-91
2023/03/31 02:12:50;;;;;;;17.10;2.15;;;;;;;9.00;100.00;99996.91;4899154;29;20016;-92
2023/03/31 02:15:22;;;;;;;9.77;2.05;;;;;;;9.05;100.00;99998.75;4899695;29;20021;-92
2023/03/31 02:17:50;;;;;;;13.63;2.00;;;;;;;9.06;100.00;99984.31;4882762;29;20373;-91
2023/03/31 02:20:20;;;;;;;12.60;2.53;;;;;;;9.01;100.00;99968.28;4885994;29;20024;-93
2023/03/31 02:22:49;;;;;;;19.10;2.10;;;;;;;9.04;100.00;99962.41;4918042;29;20024;-92
2023/03/31 02:25:21;;;;;;;15.80;1.95;;;;;;;9.03;100.00;99952.78;4900685;29;20028;-91
2023/03/31 02:27:54;;;;;;;20.65;2.03;;;;;;;8.99;100.00;99941.03;4917482;29;20539;-91
2023/03/31 02:30:20;;;;;;;20.08;2.53;;;;;;;8.99;100.00;99938.34;4916793;29;20032;-91
2023/03/31 02:32:45;;;;;;;12.23;2.10;;;;;;;8.97;100.00;99921.78;4917288;29;20034;-92
2023/03/31 02:35:17;;;;;;;17.00;2.42;;;;;;;9.00;100.00;99921.25;4899022;29;20033;-91
2023/03/31 02:37:45;;;;;;;16.35;2.63;;;;;;;9.02;100.00;99925.28;4898921;29;20059;-92
2023/03/31 02:40:16;;;;;;;14.23;2.30;;;;;;;9.01;100.00;99917.53;4898110;29;20495;-91
2023/03/31 02:42:42;;;;;;;29.50;2.55;;;;;;;9.02;100.00;99898.56;4898596;29;20544;-91
2023/03/31 02:45:46;;;;;;;16.13;2.50;;;;;;;9.03;100.00;99878.78;4882078;29;20036;-92
2023/03/31 02:48:17;;;;;;;24.25;2.83;;;;;;;9.03;100.00;99884.13;4898800;29;20037;-91
2023/03/31 02:51:07;;;;;;;22.45;2.65;;;;;;;9.00;100.00;99890.00;4899250;29;20037;-91
2023/03/31 02:53:38;;;;;;;14.02;2.60;;;;;;;8.98;100.00;99868.09;4897567;29;20040;-91
2023/03/31 02:56:20;;;;;;;15.77;2.80;;;;;;;8.97;100.00;99853.13;4902947;29;20037;-91
2023/03/31 02:59:10;;;;;;;20.70;2.63;;;;;;;8.96;100.00;99843.50;4898043;29;20048;-91
2023/03/31 03:02:02;;;;;;;14.95;2.35;;;;;;;8.95;100.00;99836.56;4904364;29;20035;-91
2023/03/31 03:04:58;;;;;;;18.73;2.30;;;;;;;8.96;100.00;99832.00;4916929;29;20524;-91
2023/03/31 03:07:54;;;;;;;18.60;2.37;;;;;;;8.87;100.00;99810.41;4900122;29;20036;-92
2023/03/31 03:10:34;;;;;;;17.47;1.97;;;;;;;8.90;100.00;99809.84;4915277;29;20296;-91
2023/03/31 03:13:05;;;;;;;17.80;1.65;;;;;;;8.92;100.00;99824.56;4900873;29;20070;-92
2023/03/31 03:15:46;;;;;;;12.30;1.70;;;;;;;8.89;100.00;99813.59;4920940;29;20028;-90
2023/03/31 03:18:13;;;;;;;16.92;2.40;;;;;;;8.92;100.00;99821.91;4933479;29;20051;-91
2023/03/31 03:20:39;;;;;;;16.75;2.20;;;;;;;8.89;100.00;99806.41;4917388;29;20507;-92
2023/03/31 03:23:05;;;;;;;16.23;2.40;;;;;;;8.94;100.00;99805.56;4927195;29;20084;-92
2023/03/31 03:25:30;;;;;;;21.57;2.80;;;;;;;8.95;100.00;99804.50;4929747;29;20393;-92
2023/03/31 03:27:55;;;;;;;13.82;2.03;;;;;;;8.95;100.00;99812.53;4917433;29;20396;-91
2023/03/31 03:30:21;;;;;;;20.40;2.43;;;;;;;8.90;100.00;99793.81;4916879;29;20476;-91
2023/03/31 03:32:46;;;;;;;15.37;1.80;;;;;;;8.90;100.00;99791.16;4917912;29;20035;-91
2023/03/31 03:35:11;;;;;;;22.20;2.43;;;;;;;8.87;100.00;99781.00;4900985;29;20037;-91
2023/03/31 03:37:37;;;;;;;16.23;2.90;;;;;;;8.93;100.00;99788.75;4916836;29;20075;-91
2023/03/31 03:40:06;;;;;;;19.63;2.40;;;;;;;8.92;100.00;99786.34;4917383;29;20107;-92
2023/03/31 03:42:33;;;;;;;15.75;2.03;;;;;;;8.87;100.00;99765.78;4899933;29;20540;-92
2023/03/31 03:44:58;;;;;;;16.33;1.83;;;;;;;8.90;100.00;99762.59;4916815;29;20028;-92
2023/03/31 03:47:23;;;;;;;23.27;2.00;;;;;;;8.87;100.00;99756.97;4916896;29;20299;-92
2023/03/31 03:49:49;;;;;;;13.77;1.97;;;;;;;8.91;100.00;99761.50;4915855;29;20068;-92
2023/03/31 03:52:15;;;;;;;13.23;2.00;;;;;;;8.89;100.00;99741.47;4916972;29;20027;-91
2023/03/31 03:54:40;;;;;;;13.70;2.10;;;;;;;8.89;100.00;99742.28;4916479;29;20456;-92
2023/03/31 03:57:06;;;;;;;11.53;1.80;;;;;;;8.84;100.00;99723.59;4914713;29;20044;-92
2023/03/31 03:59:31;;;;;;;8.85;1.60;;;;;;;8.87;100.00;99728.41;4916313;29;20033;-92
2023/03/31 04:01:56;;;;;;;11.63;1.60;;;;;;;8.86;100.00;99729.47;4917517;29;20547;-91
2023/03/31 04:04:22;;;;;;;12.67;2.23;;;;;;;8.84;100.00;99710.22;4916856;29;20505;-91
2023/03/31 04:06:50;;;;;;;16.33;1.90;;;;;;;8.77;100.00;99704.38;4916961;29;20571;-92
2023/03/31 04:09:15;;;;;;;8.55;1.60;;;;;;;8.74;100.00;99689.69;4916420;29;20025;-91
2023/03/31 04:11:41;;;;;;;13.57;1.50;;;;;;;8.77;100.00;99697.19;4917227;29;20028;-91
2023/03/31 04:14:07;;;;;;;10.73;1.80;;;;;;;8.77;100.00;99699.03;4906198;29;20115;-90
2023/03/31 04:16:33;;;;;;;11.30;1.75;;;;;;;8.72;100.00;99685.72;4911339;29;20515;-91
2023/03/31 04:19:02;;;;;;;9.73;1.50;;;;;;;8.70;100.00;99666.50;4917517;29;20039;-92
2023/03/31 04:21:29;;;;;;;18.15;1.90;;;;;;;8.74;100.00;99672.88;4901300;29;20024;-92
2023/03/31 04:24:00;;;;;;;15.48;2.33;;;;;;;8.68;100.00;99653.41;4900169;29;20063;-91
2023/03/31 04:26:37;;;;;;;11.02;1.70;;;;;;;8.73;100.00;99656.06;4905470;29;20033;-91
2023/03/31 04:29:08;;;;;;;10.63;1.80;;;;;;;8.70;100.00;99650.47;4880736;29;20052;-92
2023/03/31 04:31:37;;;;;;;11.13;1.97;;;;;;;8.69;100.00;99638.19;4898625;29;20291;-92
2023/03/31 04:34:05;;;;;;;14.07;1.70;;;;;;;8.68;100.00;99625.91;4901759;29;20049;-91
2023/03/31 04:36:31;;;;;;;13.57;1.95;;;;;;;8.69;100.00;99630.16;4903516;29;20127;-92
2023/03/31 04:38:57;;;;;;;9.85;1.67;;;;;;;8.67;100.00;99625.13;4921572;29;20044;-92
2023/03/31 04:41:26;;;;;;;15.17;1.70;;;;;;;8.67;100.00;99608.28;4924998;29;20045;-92
2023/03/31 04:43:53;;;;;;;15.27;1.88;;;;;;;8.65;100.00;99608.56;4909335;29;20012;-92
2023/03/31 04:46:19;;;;;;;12.48;1.58;;;;;;;8.64;100.00;99593.63;4909062;29;20028;-92
2023/03/31 04:48:46;;;;;;;9.88;1.58;;;;;;;8.60;100.00;99585.34;4923689;29;20045;-92
2023/03/31 04:51:14;;;;;;;10.97;1.60;;;;;;;8.60;100.00;99585.34;4924757;29;20053;-92
2023/03/31 04:53:39;;;;;;;11.05;2.05;;;;;;;8.59;100.00;99581.06;4933743;28;20072;-91
2023/03/31 04:56:06;;;;;;;13.60;1.80;;;;;;;8.58;100.00;99576.00;4943009;28;20036;-92
2023/03/31 04:58:33;;;;;;;9.73;1.77;;;;;;;8.58;100.00;99568.78;4942131;28;20035;-92
2023/03/31 05:00:58;;;;;;;14.85;1.83;;;;;;;8.60;100.00;99573.88;4935890;29;20046;-91
2023/03/31 05:03:23;;;;;;;11.20;1.40;;;;;;;8.59;100.00;99569.59;4926404;29;20047;-91
2023/03/31 05:05:49;;;;;;;16.23;1.83;;;;;;;8.61;100.00;99572.81;4924769;29;20031;-92
2023/03/31 05:08:14;;;;;;;16.07;1.70;;;;;;;8.62;100.00;99569.06;4928165;29;20036;-92
2023/03/31 05:10:40;;;;;;;16.67;1.92;;;;;;;8.60;100.00;99577.31;4911289;29;20112;-92
2023/03/31 05:13:08;;;;;;;9.80;1.60;;;;;;;8.58;100.00;99560.78;4924583;29;20054;-92
2023/03/31 05:15:36;;;;;;;9.80;1.60;;;;;;;8.52;100.00;99545.06;4935044;28;20012;-92
2023/03/31 05:18:02;;;;;;;7.82;1.65;;;;;;;8.57;100.00;99545.03;4942165;28;20072;-92
2023/03/31 05:20:27;;;;;;;10.47;1.50;;;;;;;8.55;100.00;99540.00;4940901;28;20051;-92
2023/03/31 05:22:52;;;;;;;7.37;1.30;;;;;;;8.51;100.00;99535.44;4941891;28;20113;-92
2023/03/31 05:25:18;;;;;;;11.43;1.60;;;;;;;8.52;100.00;99532.53;4941859;28;20024;-93
2023/03/31 05:27:48;;;;;;;10.13;1.38;;;;;;;8.53;100.00;99522.63;4941029;28;20028;-92
2023/03/31 05:30:15;;;;;;;12.15;1.60;;;;;;;8.51;100.00;99519.44;4921767;29;20688;-93
2023/03/31 05:32:40;;;;;;;5.97;1.40;;;;;;;8.50;100.00;99515.97;4922404;29;20077;-92
2023/03/31 05:35:06;;;;;;;10.53;1.53;;;;;;;8.49;100.00;99519.72;4905248;29;20569;-92
2023/03/31 05:37:32;;;;;;;7.57;1.40;;;;;;;8.45;100.00;99503.44;4910182;29;20034;-93
2023/03/31 05:39:57;;;;;;;12.23;1.87;;;;;;;8.48;100.00;99499.44;4901585;29;20390;-93
2023/03/31 05:42:23;;;;;;;6.70;1.50;;;;;;;8.49;100.00;99501.81;4901850;29;20104;-92
2023/03/31 05:44:48;;;;;;;11.60;1.70;;;;;;;8.48;100.00;99496.78;4903947;29;20095;-86
2023/03/31 05:47:15;;;;;;;6.20;1.10;;;;;;;8.42;100.00;99485.28;4897985;29;20020;-86
2023/03/31 05:49:40;;;;;;;11.80;1.83;;;;;;;8.51;100.00;99496.22;4896883;29;20494;-87
2023/03/31 05:52:07;;;;;;;9.17;1.73;;;;;;;8.49;100.00;99499.16;4898657;29;20036;-88
2023/03/31 05:54:32;;;;;;;13.82;1.48;;;;;;;8.54;100.00;99494.84;4899388;29;20028;-87
2023/03/31 05:56:58;;;;;;;11.30;1.80;;;;;;;8.55;100.00;99496.47;4901099;29;20040;-88
2023/03/31 05:59:25;;;;;;;15.43;2.20;;;;;;;8.54;100.00;99493.00;4914216;29;20071;-86
2023/03/31 06:01:50;;;;;;;10.60;1.80;;;;;;;8.50;100.00;99481.28;4920280;29;20036;-86
2023/03/31 06:32:42;;;;;;;10.20;1.70;;;;;;;8.43;100.00;99404.16;5863442;23;21660;-87
2023/03/31 06:37:43;;;;;;;13.60;1.75;;;;;;;8.62;100.00;99430.97;4979271;23;20088;-87
2023/03/31 06:40:13;;;;;;;6.63;1.50;;;;;;;8.62;100.00;99417.63;4930303;29;20024;-89
2023/03/31 06:42:38;;;;;;;9.52;2.00;;;;;;;8.57;100.00;99407.00;4920017;29;20029;-89
2023/03/31 06:45:04;;;;;;;13.53;1.93;;;;;;;8.63;100.00;99437.91;4944378;29;20030;-89
2023/03/31 06:47:29;;;;;;;17.47;2.47;;;;;;;8.64;100.00;99446.75;4907682;29;20051;-89
2023/03/31 06:49:54;;;;;;;18.00;2.67;;;;;;;8.63;100.00;99431.81;4908828;29;20065;-89
2023/03/31 06:52:20;;;;;;;9.47;2.57;;;;;;;8.71;100.00;99433.06;4916526;29;20036;-87
2023/03/31 06:54:51;;;;;;;18.47;2.67;;;;;;;8.73;100.00;99428.25;4921107;29;20032;-88
2023/03/31 06:57:16;;;;;;;17.17;3.53;;;;;;;8.69;100.00;99419.97;5757075;23;20426;-88
2023/03/31 07:09:00;;;;;;;16.33;3.63;;;;;;;8.71;100.00;99407.16;5109602;23;20066;-87
2023/03/31 07:12:09;;;;;;;13.67;3.40;;;;;;;8.83;100.00;99425.47;4936923;29;20028;-88
2023/03/31 07:14:53;;;;;;;;;;;;;;;;;;;;;
2023/03/31 07:17:24;;;;;;;18.63;3.13;;;;;;;8.86;100.00;99440.16;4902115;29;20036;-88
2023/03/31 07:19:59;;;;;;;22.15;3.63;;;;;;;8.89;100.00;99421.69;4904642;29;20039;-88
2023/03/31 07:25:46;;;;;;;17.83;2.30;;;;;;;8.82;100.00;99391.84;4916771;29;20043;-87
2023/03/31 07:31:46;;;;;;;13.82;3.05;;;;;;;8.84;100.00;99367.53;4920323;29;20107;-87
2023/03/31 07:34:11;;;;;;;11.85;2.92;;;;;;;8.77;100.00;99357.16;4919160;29;20059;-87
2023/03/31 07:36:37;;;;;;;12.87;2.50;;;;;;;8.87;100.00;99378.44;4926827;29;20031;-88
2023/03/31 07:39:04;;;;;;;8.33;1.67;;;;;;;8.98;100.00;99391.69;4917715;29;20060;-88
2023/03/31 07:41:29;;;;;;;9.45;1.67;;;;;;;8.97;100.00;99395.44;4917185;29;20488;-89
2023/03/31 07:43:55;;;;;;;6.43;1.90;;;;;;;8.90;100.00;99385.91;4916649;29;20024;-87
2023/03/31 07:46:23;;;;;;;9.30;1.80;;;;;;;8.92;100.00;99386.41;4908443;29;20079;-86
2023/03/31 07:48:50;;;;;;;11.53;1.47;;;;;;;8.99;100.00;99393.28;4909663;29;20337;-87
2023/03/31 07:51:17;;;;;;;9.80;1.77;;;;;;;9.02;100.00;99382.03;4916616;29;20024;-87
2023/03/31 07:53:43;;;;;;;8.95;1.80;;;;;;;9.14;100.00;99393.13;4914739;29;20032;-87
2023/03/31 07:56:12;;;;;;;14.45;1.98;;;;;;;9.27;100.00;99393.56;4914041;29;20029;-88
2023/03/31 07:58:37;;;;;;;15.67;2.00;;;;;;;9.42;100.00;99377.34;4903269;29;20037;-87
2023/03/31 08:01:03;;;;;;;14.60;2.30;;;;;;;9.53;100.00;99378.81;4899426;29;20641;-87
2023/03/31 08:03:28;;;;;;;19.17;3.00;;;;;;;9.69;100.00;99375.94;4912777;29;20113;-86
2023/03/31 08:05:54;;;;;;;17.33;3.63;;;;;;;9.74;100.00;99370.53;4888281;29;20044;-87
2023/03/31 08:08:21;;;;;;;24.33;3.78;;;;;;;9.87;100.00;99365.53;4904165;29;20033;-87
2023/03/31 08:10:47;;;;;;;21.40;4.03;;;;;;;9.93;100.00;99367.06;4906701;29;20024;-87
2023/03/31 08:13:12;;;;;;;22.70;3.97;;;;;;;9.94;100.00;99366.78;4906881;29;20036;-86
2023/03/31 08:15:43;;;;;;;22.00;4.07;;;;;;;9.90;100.00;99348.91;4977751;23;20044;-86
2023/03/31 08:18:10;;;;;;;19.88;3.83;;;;;;;9.80;100.00;99313.19;4927332;29;20058;-87
2023/03/31 08:20:38;;;;;;;25.10;3.80;;;;;;;10.22;100.00;99360.78;4941499;29;20039;-86
2023/03/31 08:23:07;;;;;;;18.25;3.72;;;;;;;10.06;100.00;99320.84;4940644;29;20383;-87
2023/03/31 08:25:33;;;;;;;18.08;3.45;;;;;;;10.23;100.00;99340.94;4914140;29;20109;-87
2023/03/31 08:28:01;;;;;;;12.30;3.07;;;;;;;10.28;100.00;99330.16;4902510;29;20036;-86
2023/03/31 08:30:30;;;;;;;27.58;2.92;;;;;;;10.24;100.00;99324.59;4918325;29;20036;-87
2023/03/31 08:32:55;;;;;;;13.75;2.67;;;;;;;10.52;100.00;99362.19;4917005;29;20058;-86
2023/03/31 08:35:20;;;;;;;18.83;3.10;;;;;;;10.54;100.00;99348.53;4918876;29;20095;-87
2023/03/31 08:37:46;;;;;;;23.83;3.27;;;;;;;10.49;100.00;99348.59;4918474;29;20028;-87
2023/03/31 08:40:18;;;;;;;14.85;3.13;;;;;;;10.64;100.00;99356.38;4901039;29;20476;-86
2023/03/31 08:42:48;;;;;;;22.85;3.47;;;;;;;10.73;100.00;99356.50;4917614;29;20088;-87
2023/03/31 08:45:16;;;;;;;24.95;3.50;;;;;;;10.71;100.00;99364.84;4918327;29;20020;-86
2023/03/31 08:47:43;;;;;;;22.00;3.23;;;;;;;10.67;100.00;99363.03;4936539;23;20039;-88
2023/03/31 08:50:26;;;;;;;20.60;2.97;;;;;;;10.60;100.00;99350.00;4928760;29;20307;-87
2023/03/31 08:53:05;;;;;;;21.58;3.65;;;;;;;10.59;100.00;99359.16;4945045;29;20099;-88
2023/03/31 08:55:45;;;;;;;17.00;3.58;;;;;;;10.69;100.00;99353.59;4906603;29;20059;-88
2023/03/31 08:58:34;;;;;;;20.45;3.33;;;;;;;10.72;100.00;99358.38;4918654;29;20445;-85
2023/03/31 09:01:23;;;;;;;22.83;3.00;;;;;;;10.78;100.00;99359.09;4928418;29;20043;-89
2023/03/31 09:04:00;;;;;;;18.30;2.95;;;;;;;10.93;100.00;99351.84;4937196;29;20039;-88
2023/03/31 09:22:49;;;;;;;19.02;2.50;;;;;;;11.88;100.00;99332.50;5129595;23;21613;-87
2023/03/31 09:25:21;;;;;;;12.93;2.90;;;;;;;11.91;100.00;99317.69;4923020;29;20028;-87
2023/03/31 09:27:49;;;;;;;14.50;2.53;;;;;;;12.15;100.00;99333.53;4917982;29;20035;-87
2023/03/31 09:30:25;;;;;;;22.83;3.10;;;;;;;12.15;100.00;99338.09;4922461;29;20032;-87
2023/03/31 09:33:16;;;;;;;12.57;2.27;;;;;;;12.03;100.00;99325.25;4936335;29;20675;-87
2023/03/31 09:35:41;;;;;;;15.15;2.67;;;;;;;12.02;100.00;99327.13;4916521;29;20032;-88
2023/03/31 09:38:10;;;;;;;19.17;2.78;;;;;;;11.96;100.00;99333.66;4916888;29;20024;-87
2023/03/31 09:40:36;;;;;;;16.00;2.57;;;;;;;11.87;100.00;99311.34;4901028;29;20036;-88
2023/03/31 09:43:11;;;;;;;11.95;2.50;;;;;;;11.99;100.00;99321.56;4916900;29;20043;-87
2023/03/31 09:45:37;;;;;;;15.23;2.80;;;;;;;11.98;100.00;99307.31;4925369;29;20043;-86
2023/03/31 09:48:17;;;;;;;20.27;3.80;;;;;;;11.91;100.00;99334.59;4935440;29;20082;-83
2023/03/31 09:50:48;;;;;;;29.20;12.73;;;;;;;11.91;100.00;99318.47;4934802;29;20032;-86
2023/03/31 09:53:50;;;;;;;16.92;2.90;;;;;;;12.16;100.00;99324.38;4935137;29;20031;-86
2023/03/31 09:56:40;;;;;;;16.73;3.00;;;;;;;12.32;100.00;99319.47;4933858;29;20054;-87
2023/03/31 09:59:13;;;;;;;14.03;2.67;;;;;;;12.36;100.00;99296.22;4935867;29;20288;-88
2023/03/31 10:01:39;;;;;;;12.50;2.38;;;;;;;12.51;100.00;99319.25;4936124;29;20035;-86
2023/03/31 10:10:36;;;;;;;11.90;2.40;;;;;;;12.63;100.00;99315.19;4921991;29;20080;-88
2023/03/31 10:13:46;;;;;;;9.60;2.63;;;;;;;12.72;100.00;99303.38;4917673;29;20294;-88
2023/03/31 10:16:52;;;;;;;11.13;1.92;;;;;;;12.80;100.00;99311.81;5387467;23;20019;-88
2023/03/31 10:19:58;;;;;;;10.30;2.10;;;;;;;12.83;100.00;99295.84;4939404;29;20052;-89
2023/03/31 10:23:16;;;;;;;9.73;1.70;;;;;;;12.81;100.00;99298.03;4902393;29;20040;-88
2023/03/31 10:25:46;;;;;;;13.27;2.33;;;;;;;12.75;100.00;99296.59;5292733;23;20064;-88
2023/03/31 10:28:16;;;;;;;10.60;2.53;;;;;;;12.83;100.00;99303.13;4917139;29;20051;-88
2023/03/31 10:30:48;;;;;;;12.77;2.40;;;;;;;12.88;100.00;99287.63;4917030;29;20084;-87
2023/03/31 10:33:19;;;;;;;11.23;3.20;;;;;;;13.03;100.00;99273.00;4916464;29;20031;-86
2023/03/31 10:35:56;;;;;;;12.07;3.47;;;;;;;13.08;100.00;99306.19;4917258;29;20095;-88
2023/03/31 10:38:41;;;;;;;12.23;1.88;;;;;;;13.10;100.00;99294.03;4917454;29;20024;-87
2023/03/31 10:41:08;;;;;;;13.13;2.03;;;;;;;12.91;100.00;99293.50;4917550;29;20690;-88
2023/03/31 10:43:40;;;;;;;9.05;1.80;;;;;;;12.59;100.00;99287.38;4901596;29;20051;-87
2023/03/31 10:46:05;;;;;;;11.27;2.17;;;;;;;12.31;100.00;99279.47;4901993;29;20062;-88
2023/03/31 10:48:33;;;;;;;14.63;2.37;;;;;;;12.36;100.00;99282.81;4921557;29;20382;-88
2023/03/31 10:51:19;;;;;;;12.82;2.08;;;;;;;12.60;100.00;99286.25;4929612;29;20028;-88
2023/03/31 10:53:53;;;;;;;13.40;2.13;;;;;;;12.82;100.00;99282.72;4927665;29;20040;-87
2023/03/31 10:56:43;;;;;;;14.77;1.67;;;;;;;13.16;100.00;99278.56;4928268;29;20742;-89
2023/03/31 10:59:38;;;;;;;14.13;2.17;;;;;;;13.37;100.00;99281.44;4929695;29;20043;-88
2023/03/31 11:02:18;;;;;;;15.00;2.70;;;;;;;13.30;100.00;99278.44;4938727;29;20028;-87
2023/03/31 11:05:40;;;;;;;14.27;2.47;;;;;;;13.38;100.00;99261.50;4932299;29;20047;-89
2023/03/31 11:08:37;;;;;;;14.13;2.35;;;;;;;13.43;100.00;99269.44;4906606;29;20099;-88
2023/03/31 11:11:22;;;;;;;12.15;1.95;;;;;;;13.13;100.00;99273.78;4939435;29;20023;-87
2023/03/31 11:14:05;;;;;;;13.82;2.40;;;;;;;12.71;100.00;99271.44;4926212;29;20484;-88
2023/03/31 11:16:52;;;;;;;13.97;2.00;;;;;;;12.61;100.00;99266.31;4902274;29;20034;-88
2023/03/31 11:19:34;;;;;;;12.13;2.10;;;;;;;12.35;100.00;99275.06;4916970;29;20302;-89
2023/03/31 11:22:25;;;;;;;13.82;2.45;;;;;;;12.21;100.00;99250.97;4916849;29;20032;-87
2023/03/31 11:25:09;;;;;;;14.13;2.15;;;;;;;12.32;100.00;99256.88;4936316;29;20036;-88
2023/03/31 11:28:07;;;;;;;9.10;1.73;;;;;;;12.68;100.00;99251.38;4935244;29;20075;-87
2023/03/31 11:30:50;;;;;;;10.27;2.28;;;;;;;12.87;100.00;99256.47;4923347;29;20496;-89
2023/03/31 11:33:46;;;;;;;14.00;2.17;;;;;;;13.13;100.00;99253.09;4932735;29;20506;-88
2023/03/31 11:36:21;;;;;;;13.80;2.50;;;;;;;13.40;100.00;99236.97;4926685;29;20033;-87
2023/03/31 11:44:52;;;;;;;;;;;;;;;;;;;;;
2023/03/31 11:56:40;;;;;;;12.32;1.92;;;;;;;13.30;100.00;99236.16;5175588;23;20062;-89
2023/03/31 12:14:41;;;;;;;9.30;1.95;;;;;;;13.97;91.05;99209.09;5163843;23;20060;-88
2023/03/31 12:17:24;;;;;;;8.32;1.38;;;;;;;13.50;92.08;99160.56;4924944;29;20067;-87
2023/03/31 12:20:25;;;;;;;13.03;2.03;;;;;;;13.56;95.10;99168.16;4946124;29;20060;-87
2023/03/31 12:23:08;;;;;;;9.07;1.83;;;;;;;13.91;90.24;99210.38;4925932;29;20291;-87
2023/03/31 12:26:06;;;;;;;9.05;1.75;;;;;;;13.98;89.33;99191.03;5206696;23;20463;-88
2023/03/31 12:28:36;;;;;;;10.30;1.77;;;;;;;13.75;88.71;99150.88;4924049;29;20118;-88
2023/03/31 12:31:23;;;;;;;9.30;1.70;;;;;;;14.19;89.53;99181.16;4925417;29;20029;-87
2023/03/31 12:34:05;;;;;;;9.85;1.70;;;;;;;14.39;94.09;99170.78;4933255;29;20080;-88
2023/03/31 12:36:39;;;;;;;8.35;1.77;;;;;;;14.37;88.91;99173.81;4908297;29;20040;-87
2023/03/31 12:39:30;;;;;;;8.00;1.53;;;;;;;14.55;91.63;99171.03;4902682;29;20388;-89
2023/03/31 12:42:33;;;;;;;6.38;1.50;;;;;;;14.83;89.22;99157.09;4898715;29;20040;-89
2023/03/31 12:45:17;;;;;;;6.57;1.60;;;;;;;14.45;86.53;99176.78;4885629;29;20029;-88
2023/03/31 12:48:06;;;;;;;13.35;2.10;;;;;;;14.28;86.97;99164.97;4887528;29;20580;-88
2023/03/31 12:50:34;;;;;;;7.75;1.75;;;;;;;14.19;87.84;99153.44;4867984;29;20044;-88
2023/03/31 12:53:22;;;;;;;8.18;1.83;;;;;;;13.93;89.08;99136.25;4889735;29;20111;-88
2023/03/31 12:55:58;;;;;;;8.30;2.00;;;;;;;13.75;90.37;99135.50;5118089;23;20458;-88
2023/03/31 13:02:24;;;;;;;8.48;1.92;;;;;;;13.74;92.91;99144.69;4912099;29;20076;-88
2023/03/31 13:05:46;;;;;;;9.80;1.85;;;;;;;13.22;91.84;99099.00;4913688;29;20044;-87
2023/03/31 13:08:55;;;;;;;8.05;1.73;;;;;;;13.08;97.23;99099.97;4915764;29;20040;-88
2023/03/31 13:21:08;;;;;;;8.50;1.90;;;;;;;12.74;100.00;99139.16;6027341;23;20051;-87
2023/03/31 13:39:56;;;;;;;7.32;1.50;;;;;;;13.75;100.00;99135.50;4928919;29;20059;-88
2023/03/31 14:31:34;;;;;;;6.77;1.00;;;;;;;12.81;100.00;99109.13;4952571;29;20338;-88
2023/03/31 14:34:41;;;;;;;5.70;1.00;;;;;;;12.69;100.00;99107.03;4921919;29;20043;-87
2023/03/31 14:37:10;;;;;;;5.68;1.00;;;;;;;12.37;100.00;99092.91;4915941;29;20025;-88
2023/03/31 14:40:02;;;;;;;5.18;1.23;;;;;;;12.63;100.00;99103.72;4894659;29;20033;-88
2023/03/31 14:44:57;;;;;;;3.88;0.85;;;;;;;12.62;100.00;99077.94;4901196;29;20067;-88
2023/03/31 14:48:00;;;;;;;4.87;1.10;;;;;;;12.80;100.00;99091.41;4890484;29;20031;-88
2023/03/31 14:50:56;;;;;;;2.80;0.80;;;;;;;12.71;100.00;99086.78;4902949;29;20281;-88
2023/03/31 15:08:45;;;;;;;1.07;0.50;;;;;;;11.65;100.00;99085.66;4914951;29;20343;-88
2023/03/31 15:11:16;;;;;;;1.60;0.45;;;;;;;11.71;100.00;99105.09;4917385;29;20036;-88
2023/03/31 15:13:45;;;;;;;3.00;0.50;;;;;;;11.42;100.00;99052.69;4958425;23;20165;-88
2023/03/31 15:16:28;;;;;;;2.42;0.60;;;;;;;11.62;100.00;99102.34;4937857;23;20503;-88